sensor_id;sensor_type;location;lat;lon;timestamp;P1;durP1;ratioP1;P2;durP2;ratioP2
66012;SDS011;52783;50.502;8.190;2023-06-22T00:02:12;8.93;;;6.13;;
66012;SDS011;52783;50.502;8.190;2023-06-22T00:04:38;12.02;;;6.20;;
66012;SDS011;52783;50.502;8.190;2023-06-22T00:07:03;8.90;;;5.70;;
66012;SDS011;52783;50.502;8.190;2023-06-22T00:09:29;7.00;;;5.60;;
66012;SDS011;52783;50.502;8.190;2023-06-22T00:11:56;6.88;;;5.50;;
66012;SDS011;52783;50.502;8.190;2023-06-22T00:14:21;8.57;;;5.70;;
66012;SDS011;52783;50.502;8.190;2023-06-22T00:16:47;7.65;;;5.93;;
66012;SDS011;52783;50.502;8.190;2023-06-22T00:19:13;13.23;;;5.53;;
66012;SDS011;52783;50.502;8.190;2023-06-22T00:21:44;9.40;;;5.80;;
66012;SDS011;52783;50.502;8.190;2023-06-22T00:24:12;12.77;;;5.88;;
66012;SDS011;52783;50.502;8.190;2023-06-22T00:26:37;9.40;;;5.95;;
66012;SDS011;52783;50.502;8.190;2023-06-22T00:29:03;8.57;;;6.25;;
66012;SDS011;52783;50.502;8.190;2023-06-22T00:31:29;11.85;;;6.32;;
66012;SDS011;52783;50.502;8.190;2023-06-22T00:33:54;14.27;;;5.57;;
66012;SDS011;52783;50.502;8.190;2023-06-22T00:36:20;11.30;;;6.28;;
66012;SDS011;52783;50.502;8.190;2023-06-22T00:38:45;10.38;;;5.85;;
66012;SDS011;52783;50.502;8.190;2023-06-22T00:41:11;10.35;;;5.80;;
66012;SDS011;52783;50.502;8.190;2023-06-22T00:43:36;8.02;;;5.72;;
66012;SDS011;52783;50.502;8.190;2023-06-22T00:46:02;13.63;;;6.60;;
66012;SDS011;52783;50.502;8.190;2023-06-22T00:48:28;10.85;;;6.10;;
66012;SDS011;52783;50.502;8.190;2023-06-22T00:50:53;9.68;;;6.57;;
66012;SDS011;52783;50.502;8.190;2023-06-22T00:53:20;8.90;;;6.07;;
66012;SDS011;52783;50.502;8.190;2023-06-22T00:55:46;9.05;;;6.40;;
66012;SDS011;52783;50.502;8.190;2023-06-22T00:58:12;8.65;;;6.03;;
66012;SDS011;52783;50.502;8.190;2023-06-22T01:00:39;7.90;;;5.90;;
66012;SDS011;52783;50.502;8.190;2023-06-22T01:03:06;11.50;;;6.13;;
66012;SDS011;52783;50.502;8.190;2023-06-22T01:05:34;7.88;;;6.05;;
66012;SDS011;52783;50.502;8.190;2023-06-22T01:08:06;14.18;;;6.38;;
66012;SDS011;52783;50.502;8.190;2023-06-22T01:16:31;9.25;;;6.20;;
66012;SDS011;52783;50.502;8.190;2023-06-22T01:19:14;13.50;;;6.43;;
66012;SDS011;52783;50.502;8.190;2023-06-22T01:21:43;10.85;;;5.93;;
66012;SDS011;52783;50.502;8.190;2023-06-22T01:29:26;7.60;;;5.78;;
66012;SDS011;52783;50.502;8.190;2023-06-22T01:31:54;10.63;;;6.90;;
66012;SDS011;52783;50.502;8.190;2023-06-22T01:34:21;9.23;;;6.50;;
66012;SDS011;52783;50.502;8.190;2023-06-22T01:36:48;10.13;;;6.80;;
66012;SDS011;52783;50.502;8.190;2023-06-22T01:39:14;7.60;;;6.18;;
66012;SDS011;52783;50.502;8.190;2023-06-22T01:41:40;10.60;;;6.78;;
66012;SDS011;52783;50.502;8.190;2023-06-22T01:44:07;10.38;;;6.47;;
66012;SDS011;52783;50.502;8.190;2023-06-22T01:46:34;9.68;;;6.70;;
66012;SDS011;52783;50.502;8.190;2023-06-22T01:49:01;10.30;;;6.22;;
66012;SDS011;52783;50.502;8.190;2023-06-22T01:51:27;10.32;;;6.80;;
66012;SDS011;52783;50.502;8.190;2023-06-22T01:53:53;9.85;;;6.88;;
66012;SDS011;52783;50.502;8.190;2023-06-22T01:56:18;11.55;;;7.10;;
66012;SDS011;52783;50.502;8.190;2023-06-22T01:58:48;10.82;;;7.28;;
66012;SDS011;52783;50.502;8.190;2023-06-22T02:01:21;10.25;;;7.40;;
66012;SDS011;52783;50.502;8.190;2023-06-22T02:03:53;11.07;;;7.30;;
66012;SDS011;52783;50.502;8.190;2023-06-22T02:06:31;9.52;;;7.03;;
66012;SDS011;52783;50.502;8.190;2023-06-22T02:09:02;10.38;;;6.88;;
66012;SDS011;52783;50.502;8.190;2023-06-22T02:11:32;10.90;;;6.80;;
66012;SDS011;52783;50.502;8.190;2023-06-22T02:13:59;14.32;;;7.18;;
66012;SDS011;52783;50.502;8.190;2023-06-22T02:16:25;9.45;;;6.32;;
66012;SDS011;52783;50.502;8.190;2023-06-22T02:18:54;11.13;;;7.00;;
66012;SDS011;52783;50.502;8.190;2023-06-22T02:21:20;10.27;;;7.28;;
66012;SDS011;52783;50.502;8.190;2023-06-22T02:23:46;9.77;;;7.20;;
66012;SDS011;52783;50.502;8.190;2023-06-22T02:26:12;8.88;;;6.90;;
66012;SDS011;52783;50.502;8.190;2023-06-22T02:28:38;9.50;;;7.40;;
66012;SDS011;52783;50.502;8.190;2023-06-22T02:31:04;8.77;;;6.80;;
66012;SDS011;52783;50.502;8.190;2023-06-22T02:33:29;10.73;;;7.07;;
66012;SDS011;52783;50.502;8.190;2023-06-22T02:35:55;9.70;;;6.82;;
66012;SDS011;52783;50.502;8.190;2023-06-22T02:38:21;10.85;;;7.25;;
66012;SDS011;52783;50.502;8.190;2023-06-22T02:40:49;12.73;;;6.75;;
66012;SDS011;52783;50.502;8.190;2023-06-22T02:43:15;10.88;;;7.05;;
66012;SDS011;52783;50.502;8.190;2023-06-22T02:45:40;9.40;;;7.28;;
66012;SDS011;52783;50.502;8.190;2023-06-22T02:48:06;12.80;;;7.50;;
66012;SDS011;52783;50.502;8.190;2023-06-22T02:50:31;13.32;;;7.15;;
66012;SDS011;52783;50.502;8.190;2023-06-22T02:52:57;10.93;;;7.35;;
66012;SDS011;52783;50.502;8.190;2023-06-22T02:55:23;15.88;;;7.72;;
66012;SDS011;52783;50.502;8.190;2023-06-22T02:57:49;14.80;;;7.57;;
66012;SDS011;52783;50.502;8.190;2023-06-22T03:00:17;14.10;;;8.32;;
66012;SDS011;52783;50.502;8.190;2023-06-22T03:02:44;8.73;;;7.50;;
66012;SDS011;52783;50.502;8.190;2023-06-22T03:05:11;9.23;;;7.38;;
66012;SDS011;52783;50.502;8.190;2023-06-22T03:07:39;12.32;;;7.68;;
66012;SDS011;52783;50.502;8.190;2023-06-22T03:10:05;8.82;;;7.13;;
66012;SDS011;52783;50.502;8.190;2023-06-22T03:12:32;10.15;;;7.45;;
66012;SDS011;52783;50.502;8.190;2023-06-22T03:14:57;9.27;;;7.40;;
66012;SDS011;52783;50.502;8.190;2023-06-22T03:17:23;10.45;;;6.78;;
66012;SDS011;52783;50.502;8.190;2023-06-22T03:19:49;10.20;;;7.93;;
66012;SDS011;52783;50.502;8.190;2023-06-22T03:22:15;8.23;;;6.57;;
66012;SDS011;52783;50.502;8.190;2023-06-22T03:24:40;10.45;;;7.50;;
66012;SDS011;52783;50.502;8.190;2023-06-22T03:27:06;12.07;;;7.80;;
66012;SDS011;52783;50.502;8.190;2023-06-22T03:29:31;10.40;;;7.40;;
66012;SDS011;52783;50.502;8.190;2023-06-22T03:31:57;10.02;;;7.88;;
66012;SDS011;52783;50.502;8.190;2023-06-22T03:34:23;10.07;;;7.78;;
66012;SDS011;52783;50.502;8.190;2023-06-22T03:36:48;11.13;;;7.13;;
66012;SDS011;52783;50.502;8.190;2023-06-22T03:39:14;11.15;;;6.63;;
66012;SDS011;52783;50.502;8.190;2023-06-22T03:41:39;12.20;;;8.52;;
66012;SDS011;52783;50.502;8.190;2023-06-22T03:44:05;10.68;;;7.47;;
66012;SDS011;52783;50.502;8.190;2023-06-22T03:46:30;12.43;;;8.20;;
66012;SDS011;52783;50.502;8.190;2023-06-22T03:48:56;12.75;;;7.72;;
66012;SDS011;52783;50.502;8.190;2023-06-22T03:51:21;12.82;;;7.72;;
66012;SDS011;52783;50.502;8.190;2023-06-22T03:53:47;9.65;;;7.70;;
66012;SDS011;52783;50.502;8.190;2023-06-22T03:56:13;12.00;;;7.90;;
66012;SDS011;52783;50.502;8.190;2023-06-22T03:58:45;12.23;;;7.47;;
66012;SDS011;52783;50.502;8.190;2023-06-22T04:01:10;10.32;;;7.03;;
66012;SDS011;52783;50.502;8.190;2023-06-22T04:03:36;9.40;;;7.70;;
66012;SDS011;52783;50.502;8.190;2023-06-22T04:06:02;9.45;;;7.35;;
66012;SDS011;52783;50.502;8.190;2023-06-22T04:08:28;11.75;;;7.60;;
66012;SDS011;52783;50.502;8.190;2023-06-22T04:10:54;9.45;;;7.75;;
66012;SDS011;52783;50.502;8.190;2023-06-22T04:13:19;11.27;;;7.82;;
66012;SDS011;52783;50.502;8.190;2023-06-22T04:15:45;11.07;;;7.20;;
66012;SDS011;52783;50.502;8.190;2023-06-22T04:18:11;10.00;;;7.60;;
66012;SDS011;52783;50.502;8.190;2023-06-22T04:20:36;8.82;;;7.55;;
66012;SDS011;52783;50.502;8.190;2023-06-22T04:23:02;11.77;;;7.18;;
66012;SDS011;52783;50.502;8.190;2023-06-22T04:25:27;8.40;;;6.10;;
66012;SDS011;52783;50.502;8.190;2023-06-22T04:27:53;12.85;;;7.03;;
66012;SDS011;52783;50.502;8.190;2023-06-22T04:30:18;11.40;;;7.20;;
66012;SDS011;52783;50.502;8.190;2023-06-22T04:32:44;10.15;;;7.03;;
66012;SDS011;52783;50.502;8.190;2023-06-22T04:35:10;10.65;;;7.88;;
66012;SDS011;52783;50.502;8.190;2023-06-22T04:37:36;10.00;;;6.80;;
66012;SDS011;52783;50.502;8.190;2023-06-22T04:40:01;9.68;;;7.55;;
66012;SDS011;52783;50.502;8.190;2023-06-22T04:42:29;9.65;;;6.95;;
66012;SDS011;52783;50.502;8.190;2023-06-22T04:44:55;12.05;;;7.20;;
66012;SDS011;52783;50.502;8.190;2023-06-22T04:47:20;10.70;;;6.95;;
66012;SDS011;52783;50.502;8.190;2023-06-22T04:49:46;10.93;;;7.03;;
66012;SDS011;52783;50.502;8.190;2023-06-22T04:52:12;9.88;;;6.60;;
66012;SDS011;52783;50.502;8.190;2023-06-22T04:54:39;10.50;;;7.53;;
66012;SDS011;52783;50.502;8.190;2023-06-22T04:57:13;10.75;;;7.35;;
66012;SDS011;52783;50.502;8.190;2023-06-22T04:59:39;11.10;;;7.32;;
66012;SDS011;52783;50.502;8.190;2023-06-22T05:02:06;9.75;;;7.03;;
66012;SDS011;52783;50.502;8.190;2023-06-22T05:04:32;11.52;;;7.10;;
66012;SDS011;52783;50.502;8.190;2023-06-22T05:07:00;13.43;;;6.43;;
66012;SDS011;52783;50.502;8.190;2023-06-22T05:09:27;8.80;;;6.70;;
66012;SDS011;52783;50.502;8.190;2023-06-22T05:11:53;8.25;;;6.43;;
66012;SDS011;52783;50.502;8.190;2023-06-22T05:14:18;8.20;;;6.32;;
66012;SDS011;52783;50.502;8.190;2023-06-22T05:16:44;14.23;;;6.80;;
66012;SDS011;52783;50.502;8.190;2023-06-22T05:19:10;13.65;;;6.25;;
66012;SDS011;52783;50.502;8.190;2023-06-22T05:21:36;11.70;;;6.78;;
66012;SDS011;52783;50.502;8.190;2023-06-22T05:24:02;9.07;;;6.55;;
66012;SDS011;52783;50.502;8.190;2023-06-22T05:26:32;9.75;;;6.57;;
66012;SDS011;52783;50.502;8.190;2023-06-22T05:28:59;8.90;;;6.63;;
66012;SDS011;52783;50.502;8.190;2023-06-22T05:31:25;9.57;;;6.40;;
66012;SDS011;52783;50.502;8.190;2023-06-22T05:33:51;8.88;;;6.45;;
66012;SDS011;52783;50.502;8.190;2023-06-22T05:36:18;14.52;;;6.60;;
66012;SDS011;52783;50.502;8.190;2023-06-22T05:38:45;11.60;;;6.30;;
66012;SDS011;52783;50.502;8.190;2023-06-22T05:41:11;10.30;;;6.93;;
66012;SDS011;52783;50.502;8.190;2023-06-22T05:43:37;8.73;;;6.82;;
66012;SDS011;52783;50.502;8.190;2023-06-22T05:46:03;7.90;;;6.63;;
66012;SDS011;52783;50.502;8.190;2023-06-22T05:48:29;9.88;;;6.32;;
66012;SDS011;52783;50.502;8.190;2023-06-22T05:50:55;12.57;;;6.32;;
66012;SDS011;52783;50.502;8.190;2023-06-22T05:53:21;9.52;;;6.68;;
66012;SDS011;52783;50.502;8.190;2023-06-22T05:55:47;8.43;;;6.28;;
66012;SDS011;52783;50.502;8.190;2023-06-22T05:58:13;8.55;;;6.40;;
66012;SDS011;52783;50.502;8.190;2023-06-22T06:00:39;7.32;;;5.97;;
66012;SDS011;52783;50.502;8.190;2023-06-22T06:03:05;9.75;;;6.35;;
66012;SDS011;52783;50.502;8.190;2023-06-22T06:05:32;10.80;;;6.30;;
66012;SDS011;52783;50.502;8.190;2023-06-22T06:08:01;11.23;;;6.80;;
66012;SDS011;52783;50.502;8.190;2023-06-22T06:10:29;8.35;;;6.38;;
66012;SDS011;52783;50.502;8.190;2023-06-22T06:12:55;7.90;;;6.38;;
66012;SDS011;52783;50.502;8.190;2023-06-22T06:15:21;11.40;;;5.88;;
66012;SDS011;52783;50.502;8.190;2023-06-22T06:17:47;9.88;;;6.53;;
66012;SDS011;52783;50.502;8.190;2023-06-22T06:20:14;11.57;;;6.85;;
66012;SDS011;52783;50.502;8.190;2023-06-22T06:22:40;9.35;;;5.68;;
66012;SDS011;52783;50.502;8.190;2023-06-22T06:25:07;8.60;;;6.10;;
66012;SDS011;52783;50.502;8.190;2023-06-22T06:27:33;11.70;;;6.22;;
66012;SDS011;52783;50.502;8.190;2023-06-22T06:29:59;9.02;;;6.32;;
66012;SDS011;52783;50.502;8.190;2023-06-22T06:32:24;9.00;;;6.30;;
66012;SDS011;52783;50.502;8.190;2023-06-22T06:34:50;8.63;;;6.28;;
66012;SDS011;52783;50.502;8.190;2023-06-22T06:37:16;12.40;;;6.45;;
66012;SDS011;52783;50.502;8.190;2023-06-22T06:39:42;12.00;;;6.20;;
66012;SDS011;52783;50.502;8.190;2023-06-22T06:42:07;13.10;;;6.53;;
66012;SDS011;52783;50.502;8.190;2023-06-22T06:44:33;8.57;;;6.20;;
66012;SDS011;52783;50.502;8.190;2023-06-22T06:46:59;9.13;;;6.18;;
66012;SDS011;52783;50.502;8.190;2023-06-22T06:49:25;18.02;;;6.43;;
66012;SDS011;52783;50.502;8.190;2023-06-22T06:51:51;8.90;;;6.25;;
66012;SDS011;52783;50.502;8.190;2023-06-22T06:54:17;17.45;;;6.65;;
66012;SDS011;52783;50.502;8.190;2023-06-22T06:56:45;14.65;;;6.60;;
66012;SDS011;52783;50.502;8.190;2023-06-22T06:59:13;12.35;;;6.07;;
66012;SDS011;52783;50.502;8.190;2023-06-22T07:01:40;14.38;;;6.78;;
66012;SDS011;52783;50.502;8.190;2023-06-22T07:04:06;13.93;;;5.72;;
66012;SDS011;52783;50.502;8.190;2023-06-22T07:06:31;11.48;;;5.97;;
66012;SDS011;52783;50.502;8.190;2023-06-22T07:08:58;18.17;;;6.15;;
66012;SDS011;52783;50.502;8.190;2023-06-22T07:11:24;11.05;;;6.13;;
66012;SDS011;52783;50.502;8.190;2023-06-22T07:13:50;10.25;;;5.72;;
66012;SDS011;52783;50.502;8.190;2023-06-22T07:16:15;16.67;;;5.85;;
66012;SDS011;52783;50.502;8.190;2023-06-22T07:18:41;11.63;;;6.05;;
66012;SDS011;52783;50.502;8.190;2023-06-22T07:21:06;11.18;;;5.80;;
66012;SDS011;52783;50.502;8.190;2023-06-22T07:23:32;10.55;;;6.20;;
66012;SDS011;52783;50.502;8.190;2023-06-22T07:25:58;8.00;;;5.68;;
66012;SDS011;52783;50.502;8.190;2023-06-22T07:28:26;15.45;;;6.18;;
66012;SDS011;52783;50.502;8.190;2023-06-22T07:30:52;9.13;;;5.93;;
66012;SDS011;52783;50.502;8.190;2023-06-22T07:33:17;19.30;;;6.00;;
66012;SDS011;52783;50.502;8.190;2023-06-22T07:35:43;8.07;;;5.95;;
66012;SDS011;52783;50.502;8.190;2023-06-22T07:38:09;7.43;;;6.32;;
66012;SDS011;52783;50.502;8.190;2023-06-22T07:40:35;8.10;;;6.07;;
66012;SDS011;52783;50.502;8.190;2023-06-22T07:43:01;15.32;;;6.45;;
66012;SDS011;52783;50.502;8.190;2023-06-22T07:45:27;7.70;;;6.22;;
66012;SDS011;52783;50.502;8.190;2023-06-22T07:47:52;12.38;;;6.07;;
66012;SDS011;52783;50.502;8.190;2023-06-22T07:50:18;11.93;;;6.05;;
66012;SDS011;52783;50.502;8.190;2023-06-22T07:52:43;7.97;;;5.93;;
66012;SDS011;52783;50.502;8.190;2023-06-22T07:55:09;9.32;;;5.50;;
66012;SDS011;52783;50.502;8.190;2023-06-22T07:57:34;12.82;;;5.88;;
66012;SDS011;52783;50.502;8.190;2023-06-22T08:00:01;16.50;;;6.40;;
66012;SDS011;52783;50.502;8.190;2023-06-22T08:02:40;7.55;;;6.15;;
66012;SDS011;52783;50.502;8.190;2023-06-22T08:05:06;10.65;;;6.13;;
66012;SDS011;52783;50.502;8.190;2023-06-22T08:07:33;12.15;;;5.78;;
66012;SDS011;52783;50.502;8.190;2023-06-22T08:10:02;8.52;;;5.90;;
66012;SDS011;52783;50.502;8.190;2023-06-22T08:12:28;13.05;;;6.07;;
66012;SDS011;52783;50.502;8.190;2023-06-22T08:14:53;11.07;;;5.90;;
66012;SDS011;52783;50.502;8.190;2023-06-22T08:17:19;16.88;;;7.10;;
66012;SDS011;52783;50.502;8.190;2023-06-22T08:19:44;13.73;;;5.88;;
66012;SDS011;52783;50.502;8.190;2023-06-22T08:22:10;11.55;;;5.68;;
66012;SDS011;52783;50.502;8.190;2023-06-22T08:24:35;9.13;;;6.18;;
66012;SDS011;52783;50.502;8.190;2023-06-22T08:27:01;11.40;;;6.30;;
66012;SDS011;52783;50.502;8.190;2023-06-22T08:29:26;7.55;;;6.00;;
66012;SDS011;52783;50.502;8.190;2023-06-22T08:31:52;9.23;;;5.95;;
66012;SDS011;52783;50.502;8.190;2023-06-22T08:34:17;7.57;;;6.30;;
66012;SDS011;52783;50.502;8.190;2023-06-22T08:36:50;6.97;;;5.32;;
66012;SDS011;52783;50.502;8.190;2023-06-22T08:39:16;10.27;;;6.07;;
66012;SDS011;52783;50.502;8.190;2023-06-22T08:41:42;9.57;;;5.25;;
66012;SDS011;52783;50.502;8.190;2023-06-22T08:44:08;7.65;;;5.60;;
66012;SDS011;52783;50.502;8.190;2023-06-22T08:46:33;9.73;;;5.80;;
66012;SDS011;52783;50.502;8.190;2023-06-22T08:48:59;11.65;;;6.68;;
66012;SDS011;52783;50.502;8.190;2023-06-22T08:51:25;15.70;;;5.90;;
66012;SDS011;52783;50.502;8.190;2023-06-22T08:53:50;7.32;;;5.85;;
66012;SDS011;52783;50.502;8.190;2023-06-22T08:56:16;11.52;;;5.97;;
66012;SDS011;52783;50.502;8.190;2023-06-22T08:58:41;9.75;;;6.00;;
66012;SDS011;52783;50.502;8.190;2023-06-22T09:01:07;17.83;;;5.75;;
66012;SDS011;52783;50.502;8.190;2023-06-22T09:03:32;8.38;;;5.88;;
66012;SDS011;52783;50.502;8.190;2023-06-22T09:06:01;13.15;;;6.15;;
66012;SDS011;52783;50.502;8.190;2023-06-22T09:08:26;9.73;;;5.70;;
66012;SDS011;52783;50.502;8.190;2023-06-22T09:10:52;8.55;;;5.35;;
66012;SDS011;52783;50.502;8.190;2023-06-22T09:13:17;8.45;;;5.47;;
66012;SDS011;52783;50.502;8.190;2023-06-22T09:15:43;7.88;;;5.78;;
66012;SDS011;52783;50.502;8.190;2023-06-22T09:18:12;8.63;;;5.88;;
66012;SDS011;52783;50.502;8.190;2023-06-22T09:20:38;10.88;;;6.20;;
66012;SDS011;52783;50.502;8.190;2023-06-22T09:23:04;7.68;;;5.32;;
66012;SDS011;52783;50.502;8.190;2023-06-22T09:25:29;8.90;;;5.90;;
66012;SDS011;52783;50.502;8.190;2023-06-22T09:27:55;8.07;;;5.90;;
66012;SDS011;52783;50.502;8.190;2023-06-22T09:30:21;7.45;;;5.90;;
66012;SDS011;52783;50.502;8.190;2023-06-22T09:32:47;8.50;;;6.07;;
66012;SDS011;52783;50.502;8.190;2023-06-22T09:35:12;9.43;;;6.07;;
66012;SDS011;52783;50.502;8.190;2023-06-22T09:37:38;8.02;;;5.78;;
66012;SDS011;52783;50.502;8.190;2023-06-22T09:40:05;13.77;;;5.88;;
66012;SDS011;52783;50.502;8.190;2023-06-22T09:42:34;8.52;;;6.10;;
66012;SDS011;52783;50.502;8.190;2023-06-22T09:45:00;9.77;;;5.68;;
66012;SDS011;52783;50.502;8.190;2023-06-22T09:47:26;10.70;;;5.72;;
66012;SDS011;52783;50.502;8.190;2023-06-22T09:49:52;9.73;;;6.00;;
66012;SDS011;52783;50.502;8.190;2023-06-22T09:52:20;8.63;;;6.05;;
66012;SDS011;52783;50.502;8.190;2023-06-22T09:54:46;9.07;;;5.65;;
66012;SDS011;52783;50.502;8.190;2023-06-22T09:57:12;8.23;;;5.80;;
66012;SDS011;52783;50.502;8.190;2023-06-22T09:59:37;10.80;;;5.95;;
66012;SDS011;52783;50.502;8.190;2023-06-22T10:02:05;14.27;;;6.18;;
66012;SDS011;52783;50.502;8.190;2023-06-22T10:04:31;8.73;;;5.82;;
66012;SDS011;52783;50.502;8.190;2023-06-22T10:06:56;10.88;;;5.47;;
66012;SDS011;52783;50.502;8.190;2023-06-22T10:09:22;7.25;;;5.88;;
66012;SDS011;52783;50.502;8.190;2023-06-22T10:11:47;10.63;;;5.90;;
66012;SDS011;52783;50.502;8.190;2023-06-22T10:14:13;7.63;;;5.72;;
66012;SDS011;52783;50.502;8.190;2023-06-22T10:16:39;11.00;;;6.15;;
66012;SDS011;52783;50.502;8.190;2023-06-22T10:19:06;16.73;;;5.80;;
66012;SDS011;52783;50.502;8.190;2023-06-22T10:21:31;8.70;;;5.90;;
66012;SDS011;52783;50.502;8.190;2023-06-22T10:23:57;11.38;;;6.13;;
66012;SDS011;52783;50.502;8.190;2023-06-22T10:26:24;7.88;;;5.95;;
66012;SDS011;52783;50.502;8.190;2023-06-22T10:28:51;14.20;;;6.20;;
66012;SDS011;52783;50.502;8.190;2023-06-22T10:31:16;11.68;;;6.30;;
66012;SDS011;52783;50.502;8.190;2023-06-22T10:33:42;13.27;;;6.03;;
66012;SDS011;52783;50.502;8.190;2023-06-22T10:36:09;7.88;;;5.43;;
66012;SDS011;52783;50.502;8.190;2023-06-22T10:38:35;7.03;;;5.63;;
66012;SDS011;52783;50.502;8.190;2023-06-22T10:41:01;8.13;;;5.63;;
66012;SDS011;52783;50.502;8.190;2023-06-22T10:43:27;6.28;;;5.65;;
66012;SDS011;52783;50.502;8.190;2023-06-22T10:45:53;7.82;;;5.72;;
66012;SDS011;52783;50.502;8.190;2023-06-22T10:48:18;10.35;;;5.63;;
66012;SDS011;52783;50.502;8.190;2023-06-22T10:50:44;9.10;;;5.55;;
66012;SDS011;52783;50.502;8.190;2023-06-22T10:53:09;8.40;;;5.63;;
66012;SDS011;52783;50.502;8.190;2023-06-22T10:55:35;14.13;;;5.68;;
66012;SDS011;52783;50.502;8.190;2023-06-22T10:58:00;8.93;;;5.13;;
66012;SDS011;52783;50.502;8.190;2023-06-22T11:00:26;8.52;;;5.38;;
66012;SDS011;52783;50.502;8.190;2023-06-22T11:02:52;8.57;;;5.40;;
66012;SDS011;52783;50.502;8.190;2023-06-22T11:05:17;7.90;;;5.30;;
66012;SDS011;52783;50.502;8.190;2023-06-22T11:07:43;9.52;;;5.53;;
66012;SDS011;52783;50.502;8.190;2023-06-22T11:10:09;8.57;;;5.15;;
66012;SDS011;52783;50.502;8.190;2023-06-22T11:12:35;6.47;;;4.97;;
66012;SDS011;52783;50.502;8.190;2023-06-22T11:15:01;8.02;;;5.55;;
66012;SDS011;52783;50.502;8.190;2023-06-22T11:17:27;5.18;;;4.68;;
66012;SDS011;52783;50.502;8.190;2023-06-22T11:19:52;9.00;;;5.28;;
66012;SDS011;52783;50.502;8.190;2023-06-22T11:22:18;8.02;;;5.25;;
66012;SDS011;52783;50.502;8.190;2023-06-22T11:24:43;6.93;;;5.40;;
66012;SDS011;52783;50.502;8.190;2023-06-22T11:27:09;8.48;;;5.72;;
66012;SDS011;52783;50.502;8.190;2023-06-22T11:29:34;8.45;;;5.10;;
66012;SDS011;52783;50.502;8.190;2023-06-22T11:32:00;9.77;;;5.30;;
66012;SDS011;52783;50.502;8.190;2023-06-22T11:34:26;9.27;;;5.30;;
66012;SDS011;52783;50.502;8.190;2023-06-22T11:36:53;8.45;;;5.18;;
66012;SDS011;52783;50.502;8.190;2023-06-22T11:39:18;8.20;;;5.15;;
66012;SDS011;52783;50.502;8.190;2023-06-22T11:41:44;8.18;;;5.53;;
66012;SDS011;52783;50.502;8.190;2023-06-22T11:44:09;9.60;;;5.22;;
66012;SDS011;52783;50.502;8.190;2023-06-22T11:46:35;6.95;;;4.95;;
66012;SDS011;52783;50.502;8.190;2023-06-22T11:49:01;11.45;;;5.50;;
66012;SDS011;52783;50.502;8.190;2023-06-22T11:51:27;7.88;;;5.15;;
66012;SDS011;52783;50.502;8.190;2023-06-22T11:53:53;9.23;;;5.35;;
66012;SDS011;52783;50.502;8.190;2023-06-22T11:56:19;6.88;;;5.00;;
66012;SDS011;52783;50.502;8.190;2023-06-22T11:58:44;9.75;;;5.75;;
66012;SDS011;52783;50.502;8.190;2023-06-22T12:01:10;7.50;;;5.15;;
66012;SDS011;52783;50.502;8.190;2023-06-22T12:03:35;7.88;;;5.10;;
66012;SDS011;52783;50.502;8.190;2023-06-22T12:06:01;10.75;;;5.55;;
66012;SDS011;52783;50.502;8.190;2023-06-22T12:08:26;8.93;;;5.03;;
66012;SDS011;52783;50.502;8.190;2023-06-22T12:10:52;9.40;;;5.78;;
66012;SDS011;52783;50.502;8.190;2023-06-22T12:13:18;7.50;;;5.03;;
66012;SDS011;52783;50.502;8.190;2023-06-22T12:15:44;8.85;;;4.82;;
66012;SDS011;52783;50.502;8.190;2023-06-22T12:18:10;7.72;;;4.90;;
66012;SDS011;52783;50.502;8.190;2023-06-22T12:20:36;12.65;;;5.40;;
66012;SDS011;52783;50.502;8.190;2023-06-22T12:23:02;9.38;;;4.95;;
66012;SDS011;52783;50.502;8.190;2023-06-22T12:25:27;7.03;;;4.90;;
66012;SDS011;52783;50.502;8.190;2023-06-22T12:27:53;10.25;;;4.95;;
66012;SDS011;52783;50.502;8.190;2023-06-22T12:30:18;8.15;;;5.20;;
66012;SDS011;52783;50.502;8.190;2023-06-22T12:32:44;11.27;;;5.03;;
66012;SDS011;52783;50.502;8.190;2023-06-22T12:35:10;11.77;;;5.45;;
66012;SDS011;52783;50.502;8.190;2023-06-22T12:37:39;11.27;;;5.10;;
66012;SDS011;52783;50.502;8.190;2023-06-22T12:40:08;6.72;;;5.07;;
66012;SDS011;52783;50.502;8.190;2023-06-22T12:42:35;14.48;;;4.95;;
66012;SDS011;52783;50.502;8.190;2023-06-22T12:45:00;8.95;;;4.90;;
66012;SDS011;52783;50.502;8.190;2023-06-22T12:47:26;8.57;;;5.20;;
66012;SDS011;52783;50.502;8.190;2023-06-22T12:49:51;18.33;;;5.75;;
66012;SDS011;52783;50.502;8.190;2023-06-22T12:52:17;12.32;;;4.95;;
66012;SDS011;52783;50.502;8.190;2023-06-22T12:54:42;10.55;;;5.03;;
66012;SDS011;52783;50.502;8.190;2023-06-22T12:57:08;10.15;;;5.38;;
66012;SDS011;52783;50.502;8.190;2023-06-22T12:59:33;8.90;;;5.47;;
66012;SDS011;52783;50.502;8.190;2023-06-22T13:01:59;10.93;;;5.65;;
66012;SDS011;52783;50.502;8.190;2023-06-22T13:04:25;11.20;;;5.22;;
66012;SDS011;52783;50.502;8.190;2023-06-22T13:06:50;16.77;;;6.03;;
66012;SDS011;52783;50.502;8.190;2023-06-22T13:09:17;7.40;;;5.28;;
66012;SDS011;52783;50.502;8.190;2023-06-22T13:11:43;11.20;;;5.45;;
66012;SDS011;52783;50.502;8.190;2023-06-22T13:14:09;10.70;;;4.95;;
66012;SDS011;52783;50.502;8.190;2023-06-22T13:16:35;8.95;;;4.72;;
66012;SDS011;52783;50.502;8.190;2023-06-22T13:19:01;14.85;;;5.00;;
66012;SDS011;52783;50.502;8.190;2023-06-22T13:21:26;7.88;;;4.60;;
66012;SDS011;52783;50.502;8.190;2023-06-22T13:23:52;9.95;;;5.40;;
66012;SDS011;52783;50.502;8.190;2023-06-22T13:26:17;8.38;;;4.70;;
66012;SDS011;52783;50.502;8.190;2023-06-22T13:28:43;11.10;;;5.45;;
66012;SDS011;52783;50.502;8.190;2023-06-22T13:31:09;14.85;;;4.90;;
66012;SDS011;52783;50.502;8.190;2023-06-22T13:33:34;11.60;;;5.18;;
66012;SDS011;52783;50.502;8.190;2023-06-22T13:36:00;8.65;;;4.90;;
66012;SDS011;52783;50.502;8.190;2023-06-22T13:38:28;10.13;;;5.35;;
66012;SDS011;52783;50.502;8.190;2023-06-22T13:40:54;9.88;;;5.10;;
66012;SDS011;52783;50.502;8.190;2023-06-22T13:43:22;11.43;;;5.68;;
66012;SDS011;52783;50.502;8.190;2023-06-22T13:45:48;13.43;;;5.30;;
66012;SDS011;52783;50.502;8.190;2023-06-22T13:48:14;9.85;;;5.20;;
66012;SDS011;52783;50.502;8.190;2023-06-22T13:50:39;11.93;;;5.82;;
66012;SDS011;52783;50.502;8.190;2023-06-22T13:53:05;17.85;;;6.00;;
66012;SDS011;52783;50.502;8.190;2023-06-22T13:55:31;11.52;;;5.28;;
66012;SDS011;52783;50.502;8.190;2023-06-22T13:57:56;11.68;;;5.45;;
66012;SDS011;52783;50.502;8.190;2023-06-22T14:00:22;14.88;;;6.05;;
66012;SDS011;52783;50.502;8.190;2023-06-22T14:02:48;13.98;;;5.50;;
66012;SDS011;52783;50.502;8.190;2023-06-22T14:05:13;9.45;;;5.35;;
66012;SDS011;52783;50.502;8.190;2023-06-22T14:07:39;11.18;;;5.40;;
66012;SDS011;52783;50.502;8.190;2023-06-22T14:10:05;12.10;;;5.55;;
66012;SDS011;52783;50.502;8.190;2023-06-22T14:12:30;14.88;;;5.78;;
66012;SDS011;52783;50.502;8.190;2023-06-22T14:14:56;14.15;;;5.30;;
66012;SDS011;52783;50.502;8.190;2023-06-22T14:17:22;9.93;;;5.20;;
66012;SDS011;52783;50.502;8.190;2023-06-22T14:19:50;16.73;;;5.38;;
66012;SDS011;52783;50.502;8.190;2023-06-22T14:22:20;10.60;;;5.20;;
66012;SDS011;52783;50.502;8.190;2023-06-22T14:24:46;9.65;;;5.40;;
66012;SDS011;52783;50.502;8.190;2023-06-22T14:27:12;20.23;;;5.45;;
66012;SDS011;52783;50.502;8.190;2023-06-22T14:29:38;15.43;;;5.55;;
66012;SDS011;52783;50.502;8.190;2023-06-22T14:32:03;13.77;;;5.63;;
66012;SDS011;52783;50.502;8.190;2023-06-22T14:34:31;12.90;;;5.38;;
66012;SDS011;52783;50.502;8.190;2023-06-22T14:36:57;10.85;;;5.93;;
66012;SDS011;52783;50.502;8.190;2023-06-22T14:39:23;18.08;;;5.88;;
66012;SDS011;52783;50.502;8.190;2023-06-22T14:41:48;22.55;;;5.88;;
66012;SDS011;52783;50.502;8.190;2023-06-22T14:44:14;13.23;;;5.03;;
66012;SDS011;52783;50.502;8.190;2023-06-22T14:46:40;15.23;;;6.00;;